Time;durP1;ratioP1;P1;durP2;ratioP2;P2;SDS_P1;SDS_P2;PMS_P1;PMS_P2;Temp;Humidity;BMP_temperature;BMP_pressure;BME280_temperature;BME280_humidity;BME280_pressure;Samples;Min_cycle;Max_cycle;Signal;HPM_P1;HPM_P2
2021/09/14 00:00:34;;;;;;;;;;;13.80;99.90;;;;;;4997731;28;20024;-84
2021/09/14 00:03:00;;;;;;;;;;;13.80;99.90;;;;;;5004132;28;19930;-84
2021/09/14 00:05:27;;;;;;;;;;;13.80;99.90;;;;;;4999002;28;19926;-84
2021/09/14 00:07:53;;;;;;;;;;;13.80;99.90;;;;;;4997761;28;19931;-84
2021/09/14 00:10:20;;;;;;;;;;;13.80;99.90;;;;;;5008819;28;20052;-84
2021/09/14 00:12:47;;;;;;;;;;;13.80;99.90;;;;;;5001569;28;19925;-84
2021/09/14 00:15:14;;;;;;;;;;;13.80;99.90;;;;;;5002971;28;20388;-83
2021/09/14 00:17:42;;;;;;;;;;;13.70;99.90;;;;;;5007093;28;19948;-85
2021/09/14 00:20:09;;;;;;;;;;;13.70;99.90;;;;;;5003880;28;19929;-85
2021/09/14 00:22:36;;;;;;;;;;;13.70;99.90;;;;;;5008466;28;20392;-82
2021/09/14 00:25:03;;;;;;;;;;;13.60;99.90;;;;;;5007929;28;19972;-82
2021/09/14 00:27:30;;;;;;;;;;;;;;;;;;5005522;28;19931;-85
2021/09/14 00:29:57;;;;;;;;;;;13.60;99.90;;;;;;4998108;28;19925;-84
2021/09/14 00:32:23;;;;;;;;;;;13.70;99.90;;;;;;5003106;28;19932;-85
2021/09/14 00:34:51;;;;;;;;;;;13.60;99.90;;;;;;5004309;28;19928;-85
2021/09/14 00:37:18;;;;;;;;;;;13.60;99.90;;;;;;5006368;28;19932;-83
2021/09/14 00:39:45;;;;;;;;;;;13.60;99.90;;;;;;4999589;28;20017;-85
2021/09/14 00:42:11;;;;;;;;;;;13.60;99.90;;;;;;5000374;28;19925;-83
2021/09/14 00:44:38;;;;;;;;;;;13.60;99.90;;;;;;5007181;28;19929;-85
2021/09/14 00:47:05;;;;;;;;;;;13.50;99.90;;;;;;5009201;28;20557;-85
2021/09/14 00:49:32;;;;;;;;;;;13.50;99.90;;;;;;5001887;28;20021;-86
2021/09/14 00:52:00;;;;;;;;;;;13.50;99.90;;;;;;5010078;28;20301;-83
2021/09/14 00:54:27;;;;;;;;;;;13.50;99.90;;;;;;5020063;28;19932;-82
2021/09/14 00:56:56;;;;;;;;;;;13.50;99.90;;;;;;5020135;28;19926;-82
2021/09/14 00:59:22;;;;;;;;;;;13.40;99.90;;;;;;5016785;28;20293;-83
2021/09/14 01:01:49;;;;;;;;;;;13.40;99.90;;;;;;5002007;28;19933;-84
2021/09/14 01:04:16;;;;;;;;;;;13.40;99.90;;;;;;4998642;28;19925;-84
2021/09/14 01:06:43;;;;;;;;;;;13.40;99.90;;;;;;4998305;28;20020;-84
2021/09/14 01:09:11;;;;;;;;;;;13.40;99.90;;;;;;4998137;28;20004;-83
2021/09/14 01:11:39;;;;;;;;;;;13.40;99.90;;;;;;5004301;28;20012;-84
2021/09/14 01:14:07;;;;;;;;;;;13.50;99.90;;;;;;4993800;28;20441;-84
2021/09/14 01:16:42;;;;;;;;;;;13.50;99.90;;;;;;5001008;28;19981;-82
2021/09/14 01:19:24;;;;;;;;;;;13.50;99.90;;;;;;5003214;28;19947;-83
2021/09/14 01:21:50;;;;;;;;;;;13.40;99.90;;;;;;5003119;28;19951;-85
2021/09/14 01:24:18;;;;;;;;;;;13.40;99.90;;;;;;5006812;28;20004;-84
2021/09/14 01:26:45;;;;;;;;;;;13.40;99.90;;;;;;5005242;28;19961;-85
2021/09/14 01:30:11;;;;;;;;;;;13.40;99.90;;;;;;5008239;28;20420;-84
2021/09/14 01:32:04;;;;;;;;;;;13.40;99.90;;;;;;5014985;28;19925;-84
2021/09/14 01:34:38;;;;;;;;;;;13.30;99.90;;;;;;5016743;28;19933;-80
2021/09/14 01:37:07;;;;;;;;;;;13.30;99.90;;;;;;5012675;28;19930;-83
2021/09/14 01:39:49;;;;;;;;;;;13.30;99.90;;;;;;4999806;28;19926;-84
2021/09/14 01:42:23;;;;;;;;;;;13.30;99.90;;;;;;5004549;28;19926;-85
2021/09/14 01:45:08;;;;;;;;;;;13.30;99.90;;;;;;5013581;28;19925;-84
2021/09/14 01:47:34;;;;;;;;;;;13.40;99.90;;;;;;5013130;28;19925;-85
2021/09/14 01:50:07;;;;;;;;;;;13.40;99.90;;;;;;5002231;28;19937;-85
2021/09/14 01:52:34;;;;;;;;;;;13.30;99.90;;;;;;5010692;28;19925;-83
2021/09/14 01:55:18;;;;;;;;;;;13.30;99.90;;;;;;4998844;28;19930;-84
2021/09/14 01:57:56;;;;;;;;;;;13.40;99.90;;;;;;5009175;28;19995;-85
2021/09/14 02:00:25;;;;;;;;;;;13.30;99.90;;;;;;5004697;28;19926;-85
2021/09/14 02:03:19;;;;;;;;;;;13.30;99.90;;;;;;4998155;28;19934;-84
2021/09/14 02:08:53;;;;;;;;;;;13.30;99.90;;;;;;4999564;28;20300;-84
2021/09/14 02:38:15;;;;;;;;;;;12.90;99.90;;;;;;5003876;28;19936;-86
2021/09/14 02:40:05;;;;;;;;;;;13.00;99.90;;;;;;4995362;28;19936;-84
2021/09/14 02:42:57;;;;;;;;;;;13.00;99.90;;;;;;4999150;28;19940;-85
2021/09/14 02:56:46;;;;;;;;;;;13.00;99.90;;;;;;5005178;28;19980;-85
2021/09/14 02:59:12;;;;;;;;;;;13.00;99.90;;;;;;5002533;28;20281;-84
2021/09/14 03:01:38;;;;;;;;;;;13.00;99.90;;;;;;5002636;28;19937;-85
2021/09/14 03:04:08;;;;;;;;;;;12.90;99.90;;;;;;4997792;28;20016;-85
2021/09/14 03:06:35;;;;;;;;;;;12.90;99.90;;;;;;5001334;28;19977;-84
2021/09/14 03:09:02;;;;;;;;;;;12.90;99.90;;;;;;5004466;28;19926;-84
2021/09/14 03:11:29;;;;;;;;;;;12.90;99.90;;;;;;5009775;28;19925;-84
2021/09/14 03:13:58;;;;;;;;;;;12.90;99.90;;;;;;5002900;28;20033;-85
2021/09/14 03:16:25;;;;;;;;;;;12.90;99.90;;;;;;5004149;28;20056;-85
2021/09/14 03:18:57;;;;;;;;;;;12.80;99.90;;;;;;5004676;28;19965;-84
2021/09/14 03:21:26;;;;;;;;;;;12.70;99.90;;;;;;5011654;28;19996;-83
2021/09/14 03:23:52;;;;;;;;;;;12.70;99.90;;;;;;4992037;28;19985;-83
2021/09/14 03:26:19;;;;;;;;;;;12.70;99.90;;;;;;5005285;28;19926;-82
2021/09/14 03:28:46;;;;;;;;;;;12.70;99.90;;;;;;5002905;28;20325;-83
2021/09/14 03:31:15;;;;;;;;;;;12.70;99.90;;;;;;5007985;28;22275;-83
2021/09/14 03:33:42;;;;;;;;;;;12.80;99.90;;;;;;5007725;28;19926;-82
2021/09/14 03:36:09;;;;;;;;;;;12.70;99.90;;;;;;5011194;28;19926;-83
2021/09/14 03:38:40;;;;;;;;;;;12.70;99.90;;;;;;5003954;28;19925;-84
2021/09/14 03:41:07;;;;;;;;;;;12.70;99.90;;;;;;5001516;28;20382;-84
2021/09/14 03:43:34;;;;;;;;;;;12.70;99.90;;;;;;5000676;28;19925;-84
2021/09/14 03:46:03;;;;;;;;;;;12.70;99.90;;;;;;5006374;28;19926;-83
2021/09/14 03:48:37;;;;;;;;;;;12.70;99.90;;;;;;5003445;28;19941;-84
2021/09/14 03:51:06;;;;;;;;;;;12.70;99.90;;;;;;5004780;28;20428;-84
2021/09/14 03:53:33;;;;;;;;;;;12.90;99.90;;;;;;5002598;28;19933;-85
2021/09/14 03:56:11;;;;;;;;;;;12.70;99.90;;;;;;5004071;28;19930;-83
2021/09/14 03:58:41;;;;;;;;;;;12.70;99.90;;;;;;5001082;28;19933;-84
2021/09/14 04:01:07;;;;;;;;;;;12.70;99.90;;;;;;5007768;28;19960;-83
2021/09/14 04:03:41;;;;;;;;;;;12.70;99.90;;;;;;5004718;28;19932;-85
2021/09/14 04:09:16;;;;;;;;;;;12.70;99.90;;;;;;4945245;29;19931;-84
2021/09/14 04:11:49;;;;;;;;;;;12.70;99.90;;;;;;4947905;28;19954;-83
2021/09/14 04:14:28;;;;;;;;;;;12.70;99.90;;;;;;4976508;28;19940;-84
2021/09/14 04:17:04;;;;;;;;;;;12.70;99.90;;;;;;5003760;28;19933;-83
2021/09/14 04:19:32;;;;;;;;;;;12.70;99.90;;;;;;5000497;28;20400;-84
2021/09/14 04:21:59;;;;;;;;;;;12.70;99.90;;;;;;5005980;28;19980;-82
2021/09/14 04:24:29;;;;;;;;;;;12.70;99.90;;;;;;5006178;28;20163;-84
2021/09/14 04:26:57;;;;;;;;;;;12.70;99.90;;;;;;5015262;28;20221;-83
2021/09/14 04:29:27;;;;;;;;;;;12.70;99.90;;;;;;5009861;28;20373;-83
2021/09/14 04:31:54;;;;;;;;;;;12.80;99.90;;;;;;5004115;28;20015;-85
2021/09/14 04:34:23;;;;;;;;;;;12.80;99.90;;;;;;5002276;28;19972;-84
2021/09/14 04:36:50;;;;;;;;;;;12.70;99.90;;;;;;5010352;28;19925;-84
2021/09/14 04:39:19;;;;;;;;;;;12.70;99.90;;;;;;5005233;28;20012;-85
2021/09/14 04:41:49;;;;;;;;;;;12.60;99.90;;;;;;5007528;28;19937;-84
2021/09/14 04:44:26;;;;;;;;;;;12.60;99.90;;;;;;5005442;28;20024;-84
2021/09/14 04:46:55;;;;;;;;;;;12.60;99.90;;;;;;5003407;28;20616;-86
2021/09/14 04:49:23;;;;;;;;;;;12.60;99.90;;;;;;5001147;28;20201;-84
2021/09/14 04:51:50;;;;;;;;;;;12.60;99.90;;;;;;5003819;28;19925;-84
2021/09/14 04:54:17;;;;;;;;;;;12.60;99.90;;;;;;5004363;28;20359;-84
2021/09/14 04:56:45;;;;;;;;;;;12.70;99.90;;;;;;4999506;28;19988;-85
2021/09/14 04:59:12;;;;;;;;;;;12.60;99.90;;;;;;4999403;28;19933;-83
2021/09/14 05:01:40;;;;;;;;;;;12.60;99.90;;;;;;5004384;28;20300;-82
2021/09/14 05:04:07;;;;;;;;;;;12.60;99.90;;;;;;5016899;28;19925;-83
2021/09/14 05:06:34;;;;;;;;;;;12.60;99.90;;;;;;5005071;28;19932;-81
2021/09/14 05:09:01;;;;;;;;;;;12.60;99.90;;;;;;4998354;28;19961;-80
2021/09/14 05:11:27;;;;;;;;;;;12.50;99.90;;;;;;5001417;28;20214;-82
2021/09/14 05:13:54;;;;;;;;;;;12.60;99.90;;;;;;4993467;28;20368;-79
2021/09/14 05:16:21;;;;;;;;;;;12.50;99.90;;;;;;5008376;28;19965;-79
2021/09/14 05:18:52;;;;;;;;;;;12.60;99.90;;;;;;4993288;28;20000;-81
2021/09/14 05:21:19;;;;;;;;;;;12.50;99.90;;;;;;4998174;28;19940;-82
2021/09/14 05:23:46;;;;;;;;;;;12.50;99.90;;;;;;4993423;28;19929;-84
2021/09/14 05:26:21;;;;;;;;;;;12.60;99.90;;;;;;5001738;28;19934;-75
2021/09/14 05:28:48;;;;;;;;;;;12.60;99.90;;;;;;4999774;28;19979;-82
2021/09/14 05:31:17;;;;;;;;;;;12.60;99.90;;;;;;4999634;28;19932;-85
2021/09/14 05:33:45;;;;;;;;;;;12.50;99.90;;;;;;4993834;28;19932;-77
2021/09/14 05:36:13;;;;;;;;;;;12.50;99.90;;;;;;4999767;28;20012;-83
2021/09/14 05:38:41;;;;;;;;;;;12.50;99.90;;;;;;4994352;28;20019;-78
2021/09/14 05:41:07;;;;;;;;;;;12.40;99.90;;;;;;5000639;28;20468;-80
2021/09/14 05:43:34;;;;;;;;;;;12.50;99.90;;;;;;4994601;28;20244;-82
2021/09/14 05:49:06;;;;;;;;;;;12.50;99.90;;;;;;4983672;28;19926;-74
2021/09/14 05:51:43;;;;;;;;;;;12.50;99.90;;;;;;4998193;28;19980;-80
2021/09/14 05:54:10;;;;;;;;;;;12.50;99.90;;;;;;4994955;28;20011;-79
2021/09/14 05:56:37;;;;;;;;;;;12.50;99.90;;;;;;4988436;28;19979;-80
2021/09/14 05:59:04;;;;;;;;;;;12.60;99.90;;;;;;4994182;28;20024;-80
2021/09/14 06:01:31;;;;;;;;;;;12.60;99.90;;;;;;4995071;28;20385;-80
2021/09/14 06:03:58;;;;;;;;;;;12.70;99.90;;;;;;5003155;28;19933;-73
2021/09/14 06:06:27;;;;;;;;;;;12.70;99.90;;;;;;4999571;28;19933;-82
2021/09/14 06:08:55;;;;;;;;;;;12.80;99.90;;;;;;4999320;28;19933;-76
2021/09/14 06:11:22;;;;;;;;;;;12.80;99.90;;;;;;5011998;28;20321;-81
2021/09/14 06:13:51;;;;;;;;;;;12.90;99.90;;;;;;5003865;28;20343;-79
2021/09/14 06:16:24;;;;;;;;;;;13.00;99.90;;;;;;5005741;28;20308;-84
2021/09/14 06:18:54;;;;;;;;;;;13.00;99.90;;;;;;5010874;28;19926;-86
2021/09/14 06:21:20;;;;;;;;;;;13.20;99.90;;;;;;5015636;28;20416;-84
2021/09/14 06:23:47;;;;;;;;;;;13.30;99.90;;;;;;5007223;28;20336;-83
2021/09/14 06:26:15;;;;;;;;;;;13.40;99.90;;;;;;5004031;28;20025;-76
2021/09/14 06:28:42;;;;;;;;;;;13.50;99.90;;;;;;5005136;28;19933;-83
2021/09/14 06:31:09;;;;;;;;;;;13.70;99.90;;;;;;5000465;28;19968;-73
2021/09/14 06:33:35;;;;;;;;;;;13.70;99.90;;;;;;5003501;28;19930;-85
2021/09/14 06:36:02;;;;;;;;;;;13.80;99.90;;;;;;4998603;28;19925;-84
2021/09/14 06:38:29;;;;;;;;;;;14.10;99.90;;;;;;4994228;28;20015;-83
2021/09/14 06:40:55;;;;;;;;;;;14.00;99.90;;;;;;5003209;28;20032;-82
2021/09/14 06:43:24;;;;;;;;;;;14.10;99.90;;;;;;4995815;28;19926;-82
2021/09/14 06:45:50;;;;;;;;;;;14.20;99.90;;;;;;5002853;28;19943;-77
2021/09/14 06:48:17;;;;;;;;;;;14.30;99.90;;;;;;5000640;28;19940;-77
2021/09/14 06:50:44;;;;;;;;;;;14.50;99.90;;;;;;5009080;28;20028;-73
2021/09/14 06:53:11;;;;;;;;;;;14.40;99.90;;;;;;4995954;28;19929;-75
2021/09/14 06:55:38;;;;;;;;;;;14.50;99.90;;;;;;5004804;28;19925;-80
2021/09/14 06:58:05;;;;;;;;;;;14.70;99.90;;;;;;5005038;28;20016;-81
2021/09/14 07:00:33;;;;;;;;;;;14.80;99.90;;;;;;5000846;28;20013;-77
2021/09/14 07:02:59;;;;;;;;;;;14.70;99.90;;;;;;4998393;28;19930;-78
2021/09/14 07:05:26;;;;;;;;;;;14.70;99.90;;;;;;5001507;28;19953;-82
2021/09/14 07:07:53;;;;;;;;;;;14.70;99.90;;;;;;5002810;28;20068;-81
2021/09/14 07:10:20;;;;;;;;;;;14.70;99.90;;;;;;5008100;28;20277;-87
2021/09/14 07:12:47;;;;;;;;;;;14.70;99.90;;;;;;5006096;28;19925;-84
2021/09/14 07:15:13;;;;;;;;;;;14.70;99.90;;;;;;5006744;28;19969;-86
2021/09/14 07:17:43;;;;;;;;;;;14.70;99.90;;;;;;5005200;28;19961;-84
2021/09/14 07:20:10;;;;;;;;;;;14.70;99.90;;;;;;5010939;28;19933;-85
2021/09/14 07:22:37;;;;;;;;;;;14.80;99.90;;;;;;5008692;28;19948;-85
2021/09/14 07:25:04;;;;;;;;;;;15.00;99.90;;;;;;5005917;28;20291;-84
2021/09/14 07:27:31;;;;;;;;;;;15.50;99.90;;;;;;5001271;28;20004;-82
2021/09/14 07:29:57;;;;;;;;;;;16.40;99.90;;;;;;5006136;28;19936;-81
2021/09/14 07:32:24;;;;;;;;;;;17.60;99.90;;;;;;5005461;28;19932;-81
2021/09/14 07:34:52;;;;;;;;;;;18.20;99.90;;;;;;5009084;28;20075;-77
2021/09/14 07:37:19;;;;;;;;;;;17.80;99.90;;;;;;5006108;28;20044;-80
2021/09/14 07:39:45;;;;;;;;;;;18.30;99.90;;;;;;4997381;28;19932;-78
2021/09/14 07:42:12;;;;;;;;;;;18.30;99.90;;;;;;5005615;28;20410;-78
2021/09/14 07:44:39;;;;;;;;;;;18.50;99.90;;;;;;5000738;28;20061;-78
2021/09/14 07:47:05;;;;;;;;;;;18.80;99.90;;;;;;4997932;28;19929;-78
2021/09/14 07:49:32;;;;;;;;;;;19.00;99.90;;;;;;5003114;28;20308;-75
2021/09/14 07:52:00;;;;;;;;;;;18.80;99.90;;;;;;5005710;28;20009;-80
2021/09/14 07:54:27;;;;;;;;;;;19.00;99.90;;;;;;5001248;28;20008;-80
2021/09/14 07:56:54;;;;;;;;;;;19.90;99.90;;;;;;5001435;28;19925;-79
2021/09/14 07:59:20;;;;;;;;;;;19.50;99.90;;;;;;5000956;28;19969;-80
2021/09/14 08:01:47;;;;;;;;;;;18.80;99.90;;;;;;5005900;28;20396;-80
2021/09/14 08:04:14;;;;;;;;;;;18.20;99.90;;;;;;5004857;28;19932;-81
2021/09/14 08:06:40;;;;;;;;;;;17.20;99.90;;;;;;5002207;28;20017;-81
2021/09/14 08:09:08;;;;;;;;;;;17.10;99.90;;;;;;5006666;28;20062;-80
2021/09/14 08:11:36;;;;;;;;;;;17.00;99.90;;;;;;5001386;28;19926;-81
2021/09/14 08:14:02;;;;;;;;;;;17.10;99.90;;;;;;4999913;28;19926;-81
2021/09/14 08:16:29;;;;;;;;;;;17.10;99.90;;;;;;4999603;28;20391;-81
2021/09/14 08:18:56;;;;;;;;;;;18.00;99.90;;;;;;5013540;28;19925;-78
2021/09/14 08:21:23;;;;;;;;;;;18.50;99.90;;;;;;5005339;28;20029;-78
2021/09/14 08:23:50;;;;;;;;;;;18.50;99.90;;;;;;4997897;28;19988;-79
2021/09/14 08:26:18;;;;;;;;;;;18.80;99.90;;;;;;5006254;28;20412;-80
2021/09/14 08:28:45;;;;;;;;;;;19.50;99.90;;;;;;5002615;28;20020;-80
2021/09/14 08:31:11;;;;;;;;;;;19.70;99.90;;;;;;5008549;28;19992;-79
2021/09/14 08:33:38;;;;;;;;;;;20.40;99.90;;;;;;4998697;28;19926;-78
2021/09/14 08:36:06;;;;;;;;;;;21.90;99.90;;;;;;5001150;28;19925;-79
2021/09/14 08:38:33;;;;;;;;;;;22.50;99.90;;;;;;4994435;28;20084;-78
2021/09/14 08:41:00;;;;;;;;;;;22.00;99.90;;;;;;5004266;28;19926;-80
2021/09/14 08:43:28;;;;;;;;;;;21.90;99.90;;;;;;4998202;28;19975;-76
2021/09/14 08:45:55;;;;;;;;;;;21.00;99.90;;;;;;4995116;28;19940;-76
2021/09/14 08:48:23;;;;;;;;;;;20.60;99.90;;;;;;5002214;28;20016;-78
2021/09/14 08:50:50;;;;;;;;;;;21.10;99.90;;;;;;4996660;28;19948;-76
2021/09/14 08:53:17;;;;;;;;;;;22.10;99.90;;;;;;4991498;28;19982;-80
2021/09/14 08:55:44;;;;;;;;;;;21.70;99.90;;;;;;4997321;28;19925;-77
2021/09/14 08:58:13;;;;;;;;;;;21.80;99.90;;;;;;4997392;28;20355;-79
2021/09/14 09:00:42;;;;;;;;;;;21.40;99.90;;;;;;5002983;28;19937;-80
2021/09/14 09:03:09;;;;;;;;;;;22.10;99.90;;;;;;4997252;28;19930;-76
2021/09/14 09:05:36;;;;;;;;;;;21.70;99.90;;;;;;5001324;28;19939;-77
2021/09/14 09:08:03;;;;;;;;;;;22.90;99.90;;;;;;4999457;28;20025;-71
2021/09/14 09:10:30;;;;;;;;;;;23.10;99.90;;;;;;4989777;28;20292;-74
2021/09/14 09:13:00;;;;;;;;;;;22.40;99.90;;;;;;4996716;28;19945;-72
2021/09/14 09:15:27;;;;;;;;;;;22.20;99.90;;;;;;4992161;28;20029;-74
2021/09/14 09:18:06;;;;;;;;;;;21.90;99.90;;;;;;4996711;28;20012;-73
2021/09/14 09:20:33;;;;;;;;;;;22.60;99.90;;;;;;4996872;28;19929;-76
2021/09/14 09:23:05;;;;;;;;;;;22.70;99.90;;;;;;4995133;28;20482;-79
2021/09/14 09:25:32;;;;;;;;;;;22.70;99.90;;;;;;5003007;28;20269;-79
2021/09/14 09:28:07;;;;;;;;;;;22.10;99.90;;;;;;5002386;28;19940;-78
2021/09/14 09:30:36;;;;;;;;;;;21.50;99.90;;;;;;5002344;28;19932;-78
2021/09/14 09:33:03;;;;;;;;;;;21.10;99.90;;;;;;4999329;28;19929;-78
2021/09/14 09:35:32;;;;;;;;;;;20.70;99.90;;;;;;4998522;28;19933;-78
2021/09/14 09:38:00;;;;;;;;;;;21.10;99.90;;;;;;4998185;28;20012;-76
2021/09/14 09:40:30;;;;;;;;;;;21.60;99.90;;;;;;5006606;28;19964;-77
2021/09/14 09:42:57;;;;;;;;;;;22.00;99.90;;;;;;4998314;28;19933;-77
2021/09/14 09:45:24;;;;;;;;;;;22.10;99.90;;;;;;5001601;28;19934;-79
2021/09/14 09:47:50;;;;;;;;;;;22.30;99.90;;;;;;5002318;28;19933;-79
2021/09/14 09:50:17;;;;;;;;;;;22.30;99.90;;;;;;4999200;28;20402;-84
2021/09/14 09:52:46;;;;;;;;;;;22.20;99.90;;;;;;4998382;28;19925;-77
2021/09/14 09:55:13;;;;;;;;;;;22.30;99.90;;;;;;5004115;28;19933;-76
2021/09/14 09:57:39;;;;;;;;;;;22.50;99.90;;;;;;5000438;28;20424;-78
2021/09/14 10:00:09;;;;;;;;;;;22.60;99.90;;;;;;5004914;28;19926;-77
2021/09/14 10:02:39;;;;;;;;;;;22.80;99.90;;;;;;5000887;28;20653;-76
2021/09/14 10:05:08;;;;;;;;;;;22.70;99.90;;;;;;5000210;28;20445;-79
2021/09/14 10:07:35;;;;;;;;;;;22.50;99.90;;;;;;5006435;28;19930;-79
2021/09/14 10:10:04;;;;;;;;;;;22.40;99.90;;;;;;4994709;28;19961;-79
2021/09/14 10:12:32;;;;;;;;;;;22.40;99.90;;;;;;4998726;28;20373;-80
2021/09/14 10:15:00;;;;;;;;;;;22.40;99.90;;;;;;4998421;28;19926;-79
2021/09/14 10:17:26;;;;;;;;;;;22.40;99.90;;;;;;5009207;28;19979;-80
2021/09/14 10:19:53;;;;;;;;;;;22.50;99.90;;;;;;5001238;28;20028;-79
2021/09/14 10:22:23;;;;;;;;;;;22.60;99.90;;;;;;5001066;28;19929;-79
2021/09/14 10:24:50;;;;;;;;;;;22.70;99.90;;;;;;5000377;28;19930;-79
2021/09/14 10:27:18;;;;;;;;;;;22.90;99.90;;;;;;5001813;28;19930;-84
2021/09/14 10:29:56;;;;;;;;;;;22.50;99.90;;;;;;5003615;28;19968;-79
2021/09/14 10:32:22;;;;;;;;;;;22.10;99.90;;;;;;5002877;28;20009;-77
2021/09/14 10:34:53;;;;;;;;;;;21.90;99.90;;;;;;5000949;28;20028;-76
2021/09/14 10:37:20;;;;;;;;;;;21.90;99.90;;;;;;4997402;28;20051;-77
2021/09/14 10:39:46;;;;;;;;;;;22.00;99.90;;;;;;5004056;28;20012;-75
2021/09/14 10:42:13;;;;;;;;;;;22.20;99.90;;;;;;5003054;28;19929;-82
2021/09/14 10:44:42;;;;;;;;;;;22.40;99.90;;;;;;5003154;28;19932;-81
2021/09/14 10:47:09;;;;;;;;;;;22.20;99.90;;;;;;5009107;28;19934;-80
2021/09/14 10:49:43;;;;;;;;;;;21.90;99.90;;;;;;5007866;28;19937;-84
2021/09/14 10:52:10;;;;;;;;;;;21.90;99.90;;;;;;5006432;28;20200;-84
2021/09/14 10:54:43;;;;;;;;;;;22.40;99.90;;;;;;5006436;28;20400;-84
2021/09/14 10:57:10;;;;;;;;;;;22.70;99.90;;;;;;5004549;28;19933;-83
2021/09/14 10:59:36;;;;;;;;;;;22.90;99.90;;;;;;5002917;28;20238;-79
2021/09/14 11:02:05;;;;;;;;;;;23.10;99.90;;;;;;5010803;28;20016;-80
2021/09/14 11:04:31;;;;;;;;;;;23.20;99.90;;;;;;5007231;28;19933;-78
2021/09/14 11:06:58;;;;;;;;;;;23.30;99.90;;;;;;5004864;28;20302;-78
2021/09/14 11:09:25;;;;;;;;;;;23.30;99.90;;;;;;5008458;28;19936;-82
2021/09/14 11:11:54;;;;;;;;;;;23.40;99.90;;;;;;5003655;28;20391;-82
2021/09/14 11:14:21;;;;;;;;;;;23.50;99.90;;;;;;5002712;28;20053;-81
2021/09/14 11:16:48;;;;;;;;;;;23.60;99.90;;;;;;5005761;28;19926;-82
2021/09/14 11:19:24;;;;;;;;;;;23.60;99.90;;;;;;5007405;28;19968;-81
2021/09/14 11:21:51;;;;;;;;;;;23.50;99.90;;;;;;5004786;28;19992;-82
2021/09/14 11:24:20;;;;;;;;;;;23.60;99.90;;;;;;5004511;28;19925;-84
2021/09/14 11:26:47;;;;;;;;;;;23.60;99.90;;;;;;5007575;28;19940;-82
2021/09/14 11:29:14;;;;;;;;;;;23.50;99.90;;;;;;5008348;28;19930;-86
2021/09/14 11:31:41;;;;;;;;;;;23.40;99.90;;;;;;5023944;28;20000;-81
2021/09/14 11:34:08;;;;;;;;;;;23.30;99.90;;;;;;5016224;28;19933;-82
2021/09/14 11:36:36;;;;;;;;;;;23.40;99.90;;;;;;5011135;28;19971;-82
2021/09/14 11:39:04;;;;;;;;;;;23.40;99.90;;;;;;5025957;28;19972;-84
2021/09/14 11:41:31;;;;;;;;;;;23.40;99.90;;;;;;5011891;28;19933;-83
2021/09/14 11:43:58;;;;;;;;;;;23.40;99.90;;;;;;5022704;28;19972;-85
2021/09/14 11:46:26;;;;;;;;;;;23.50;99.90;;;;;;5010693;28;19989;-83
2021/09/14 11:48:56;;;;;;;;;;;23.50;99.90;;;;;;5004214;28;19929;-83
2021/09/14 11:51:23;;;;;;;;;;;23.30;99.90;;;;;;5004331;28;20020;-83
2021/09/14 11:53:52;;;;;;;;;;;23.20;99.90;;;;;;5004945;28;19926;-81
2021/09/14 11:56:20;;;;;;;;;;;23.20;99.90;;;;;;5003298;28;19932;-82
2021/09/14 11:58:47;;;;;;;;;;;23.10;99.90;;;;;;5005548;28;19925;-81
2021/09/14 12:01:14;;;;;;;;;;;23.10;99.90;;;;;;5002632;28;20392;-83
2021/09/14 12:03:43;;;;;;;;;;;23.00;99.90;;;;;;4998095;28;19940;-83
2021/09/14 12:06:11;;;;;;;;;;;22.80;99.90;;;;;;5007635;28;20549;-84
2021/09/14 12:08:39;;;;;;;;;;;22.70;99.90;;;;;;4999451;28;19925;-80
2021/09/14 12:11:07;;;;;;;;;;;22.60;99.90;;;;;;4997602;28;20402;-82
2021/09/14 12:13:38;;;;;;;;;;;22.60;99.90;;;;;;5005409;28;20123;-82
2021/09/14 12:16:06;;;;;;;;;;;22.60;99.90;;;;;;5007069;28;19980;-84
2021/09/14 12:18:34;;;;;;;;;;;22.50;99.90;;;;;;5019912;28;19925;-82
2021/09/14 12:21:00;;;;;;;;;;;22.50;99.90;;;;;;5008459;28;20400;-81
2021/09/14 12:23:27;;;;;;;;;;;22.50;99.90;;;;;;5001663;28;19925;-78
2021/09/14 12:25:54;;;;;;;;;;;22.50;99.90;;;;;;5008545;28;19926;-81
2021/09/14 12:28:22;;;;;;;;;;;22.50;99.90;;;;;;5008426;28;19929;-83
2021/09/14 12:30:48;;;;;;;;;;;22.50;99.90;;;;;;5004464;28;19984;-86
2021/09/14 12:33:15;;;;;;;;;;;22.70;99.90;;;;;;5009188;28;19925;-83
2021/09/14 12:35:42;;;;;;;;;;;22.90;99.90;;;;;;5006282;28;19925;-78
2021/09/14 12:38:09;;;;;;;;;;;23.10;99.90;;;;;;4999819;28;19930;-83
2021/09/14 12:40:36;;;;;;;;;;;23.40;99.90;;;;;;5001351;28;19926;-87
2021/09/14 12:43:02;;;;;;;;;;;23.70;99.90;;;;;;5002937;28;19926;-81
2021/09/14 12:45:30;;;;;;;;;;;23.90;99.90;;;;;;5005642;28;19936;-83
2021/09/14 12:47:57;;;;;;;;;;;24.10;99.90;;;;;;5005054;28;19939;-82
2021/09/14 12:50:24;;;;;;;;;;;24.40;99.90;;;;;;5009683;28;19925;-82
2021/09/14 12:52:50;;;;;;;;;;;24.80;99.90;;;;;;4983940;28;19957;-84
2021/09/14 12:55:17;;;;;;;;;;;24.90;99.90;;;;;;5010268;28;20087;-81
2021/09/14 12:57:44;;;;;;;;;;;24.40;99.90;;;;;;5007055;28;20311;-81
2021/09/14 13:00:11;;;;;;;;;;;23.70;99.90;;;;;;5006854;28;19936;-79
2021/09/14 13:02:39;;;;;;;;;;;23.30;99.90;;;;;;5003530;28;19925;-83
2021/09/14 13:05:07;;;;;;;;;;;23.70;99.90;;;;;;5006581;28;19932;-83
2021/09/14 13:07:33;;;;;;;;;;;23.40;99.90;;;;;;5000072;28;19926;-80
2021/09/14 13:10:00;;;;;;;;;;;23.70;99.90;;;;;;4997518;28;19932;-83
2021/09/14 13:12:31;;;;;;;;;;;23.50;99.90;;;;;;5009524;28;19926;-83
2021/09/14 13:17:55;;;;;;;;;;;23.30;99.90;;;;;;4985111;28;19946;-82
2021/09/14 13:20:22;;;;;;;;;;;22.90;99.90;;;;;;4993183;28;19929;-79
2021/09/14 13:22:48;;;;;;;;;;;22.50;99.90;;;;;;4998842;28;20047;-82
2021/09/14 13:25:15;;;;;;;;;;;22.50;99.90;;;;;;4995315;28;19940;-80
2021/09/14 13:27:42;;;;;;;;;;;22.40;99.90;;;;;;4999268;28;20040;-82
2021/09/14 13:30:09;;;;;;;;;;;22.50;99.90;;;;;;4998367;28;20076;-83
2021/09/14 13:32:36;;;;;;;;;;;22.60;99.90;;;;;;5003175;28;19932;-83
2021/09/14 13:35:04;;;;;;;;;;;22.70;99.90;;;;;;5001756;28;20008;-82
2021/09/14 13:37:31;;;;;;;;;;;22.40;99.90;;;;;;5004716;28;19929;-81
2021/09/14 13:39:57;;;;;;;;;;;22.40;99.90;;;;;;5007183;28;20436;-80
2021/09/14 13:42:25;;;;;;;;;;;22.70;99.90;;;;;;5003783;28;20361;-83
2021/09/14 13:47:36;;;;;;;;;;;23.60;99.90;;;;;;5004886;28;19971;-77
2021/09/14 13:50:05;;;;;;;;;;;24.00;99.90;;;;;;5002520;28;19929;-82
2021/09/14 13:52:32;;;;;;;;;;;24.30;99.90;;;;;;5005843;28;19926;-77
2021/09/14 13:54:58;;;;;;;;;;;24.30;99.90;;;;;;5003877;28;20008;-81
2021/09/14 13:57:25;;;;;;;;;;;24.10;99.90;;;;;;5000679;28;20009;-81
2021/09/14 13:59:54;;;;;;;;;;;23.90;99.90;;;;;;5000306;28;20445;-80
2021/09/14 14:02:21;;;;;;;;;;;23.70;99.90;;;;;;5000583;28;19973;-80
2021/09/14 14:04:48;;;;;;;;;;;23.60;99.90;;;;;;5002621;28;19939;-81
2021/09/14 14:07:17;;;;;;;;;;;23.50;99.90;;;;;;5000615;28;20277;-84
2021/09/14 14:09:44;;;;;;;;;;;23.50;99.90;;;;;;5006020;28;20111;-85
2021/09/14 14:12:10;;;;;;;;;;;23.50;99.90;;;;;;4998608;28;19926;-85
2021/09/14 14:14:37;;;;;;;;;;;23.60;99.90;;;;;;4998397;28;19932;-83
2021/09/14 14:17:03;;;;;;;;;;;23.70;99.90;;;;;;4994147;28;19926;-82
2021/09/14 14:19:30;;;;;;;;;;;23.80;99.90;;;;;;5003714;28;19934;-82
2021/09/14 14:21:57;;;;;;;;;;;23.90;99.90;;;;;;5002652;28;19992;-81
2021/09/14 14:24:25;;;;;;;;;;;23.80;99.90;;;;;;4998132;28;19929;-81
2021/09/14 14:26:52;;;;;;;;;;;23.80;99.90;;;;;;4997921;28;20268;-82
2021/09/14 14:29:18;;;;;;;;;;;23.80;99.90;;;;;;4998912;28;20024;-84
2021/09/14 14:31:45;;;;;;;;;;;23.90;99.90;;;;;;5004535;28;19929;-86
2021/09/14 14:34:12;;;;;;;;;;;23.90;99.90;;;;;;5001224;28;20060;-86
2021/09/14 14:36:38;;;;;;;;;;;24.00;99.90;;;;;;4998703;28;19932;-87
2021/09/14 14:39:05;;;;;;;;;;;23.90;99.90;;;;;;5005919;28;19968;-85
2021/09/14 14:41:33;;;;;;;;;;;23.70;99.90;;;;;;5004823;28;20414;-86
2021/09/14 14:44:00;;;;;;;;;;;23.80;99.90;;;;;;5004271;28;20355;-86
2021/09/14 14:46:27;;;;;;;;;;;23.70;99.90;;;;;;4999426;28;19926;-84
2021/09/14 14:48:53;;;;;;;;;;;23.80;99.90;;;;;;5000645;28;19932;-83
2021/09/14 14:51:20;;;;;;;;;;;23.80;99.90;;;;;;5001031;28;20015;-83
2021/09/14 14:53:46;;;;;;;;;;;23.70;99.90;;;;;;4998611;28;19953;-84
2021/09/14 14:56:13;;;;;;;;;;;23.70;99.90;;;;;;5002729;28;19926;-87
2021/09/14 14:58:42;;;;;;;;;;;23.50;99.90;;;;;;4996466;28;19926;-87
2021/09/14 15:01:08;;;;;;;;;;;23.40;99.90;;;;;;5005780;28;19925;-87
2021/09/14 15:03:35;;;;;;;;;;;23.20;99.90;;;;;;5009531;28;19993;-86
2021/09/14 15:06:04;;;;;;;;;;;23.10;99.90;;;;;;5004894;28;19957;-86
2021/09/14 15:08:30;;;;;;;;;;;23.00;99.90;;;;;;5003452;28;20137;-85
2021/09/14 15:10:57;;;;;;;;;;;22.90;99.90;;;;;;5007278;28;19925;-82
2021/09/14 15:13:24;;;;;;;;;;;22.80;99.90;;;;;;4999434;28;20016;-86
2021/09/14 15:15:52;;;;;;;;;;;22.70;99.90;;;;;;5005054;28;19976;-86